Airport View

Enter AWOS ICAO identifier for current METAR.

ex. KFNL

KMCW 191753Z AUTO 32015KT 3SM -SN OVC022 M17/M20 A3049 RMK AO2 SLP352 P0000 60000 T11671200 11167 21200 51019

19 Jan 2020 18:50

Frequency: 120.300

Phone: 641-357-8490

Other Area AWOS: KFXY - KHPT - KCAV - KAEL

TAF KMCW 191731Z 1918/2018 33015KT 4SM -SHSN OVC025 FM192200 31007KT P6SM VCSH OVC020 FM201000 32005KT 5SM -SHSN BKN010 FM201500 33005KT P6SM OVC020